Tuttle, Oklahoma
Current Conditions -  °F | °C
As of 4:55 PM on Thursday 27 Nov 2014 (Local Time) from KRCE Reporting Station
Clear Clear  
Wind Chill: 43°   Ceiling: Unl
Heat Index: 48°   Visibility: NA
Dew Point: 23°   Wind: 12mph
Humidity: 37%   Direction: 170°S
Pressure: 30.34"   Gusts: NA
Location:  35.29°N, 97.81°W
Report Text: KRCE 272255Z AUTO 17010KT CLR 09/M05 A3034 RMK AO2
Loading
Personal Weather Stations






























Interactive Weather Map New forecast layout! Learn more

10-Day Weather Forecast

Advertisements
Track Severe Weather on mobile